KKLS/KLS METAR and TAF weather

Enter ICAO airport designator
Station Type Date Time Source
KKLS METAR 2020/01/28 04:56 UTC NOAA

KKLS 280456Z AUTO 15012G21KT 10SM RA FEW012 OVC065 11/09 A2990 RMK AO2 SLP128 P0013 T01060094


Station Type Date Time Source
KKLS Decoded METAR 2020/01/28 04:56 UTC NOAA

Kelso, Kelso-Longview Airport, WA, United States (KKLS) 46-07N 122-54W
Jan 27, 2020 - 11:56 PM EST / 2020.01.28 0456 UTC
Wind: from the SSE (150 degrees) at 14 MPH (12 KT) gusting to 24 MPH (21 KT):0
Visibility: 10 mile(s):0
Sky conditions: overcast
Weather: rain
Precipitation last hour: 0.13 inches
Temperature: 51.1 F (10.6 C)
Dew Point: 48.9 F (9.4 C)
Relative Humidity: 92%
Pressure (altimeter): 29.9 in. Hg (1012 hPa)
ob: KKLS 280456Z AUTO 15012G21KT 10SM RA FEW012 OVC065 11/09 A2990 RMK AO2 SLP128 P0013 T01060094
cycle: 5

Station Type Date Time Source
KKLS TAF UTC NOAA

Error!

Example: see airport list